Time;durP1;ratioP1;P1;durP2;ratioP2;P2;SDS_P1;SDS_P2;PMS_P1;PMS_P2;Temp;Humidity;BMP_temperature;BMP_pressure;BME280_temperature;BME280_humidity;BME280_pressure;Samples;Min_cycle;Max_cycle;Signal;HPM_P1;HPM_P2
2022/09/19 00:01:57;;;;;;;5.23;1.37;;;;;;;9.37;100.00;100172.97;5075722;28;20819;-71
2022/09/19 00:04:27;;;;;;;4.13;0.97;;;;;;;9.43;100.00;100182.59;5075767;28;20449;-71
2022/09/19 00:06:55;;;;;;;5.10;0.97;;;;;;;9.44;100.00;100188.81;5075769;28;20452;-71
2022/09/19 00:09:24;;;;;;;3.57;0.80;;;;;;;9.45;100.00;100191.19;5075611;28;20488;-71
2022/09/19 00:11:51;;;;;;;4.37;0.80;;;;;;;9.41;100.00;100181.28;5075705;28;20500;-71
2022/09/19 00:14:20;;;;;;;3.33;0.73;;;;;;;9.39;100.00;100188.91;5075537;28;20445;-71
2022/09/19 00:16:47;;;;;;;4.10;1.40;;;;;;;9.37;100.00;100188.41;5075259;28;20868;-71
2022/09/19 00:19:17;;;;;;;3.60;0.80;;;;;;;9.34;100.00;100182.50;5075227;28;20453;-71
2022/09/19 00:21:47;;;;;;;5.03;1.03;;;;;;;9.28;100.00;100189.09;5075209;28;20837;-71
2022/09/19 00:27:02;;;;;;;3.37;0.87;;;;;;;9.29;100.00;100189.91;5075239;28;20404;-71
2022/09/19 00:29:28;;;;;;;3.30;0.60;;;;;;;9.28;100.00;100189.09;5075208;28;20489;-71
2022/09/19 00:31:55;;;;;;;3.73;0.97;;;;;;;9.25;100.00;100200.53;5075034;28;20789;-71
2022/09/19 00:34:21;;;;;;;4.30;0.97;;;;;;;9.26;100.00;100202.13;5075285;28;20468;-71
2022/09/19 00:36:49;;;;;;;3.60;0.73;;;;;;;9.29;100.00;100201.50;5075278;28;20445;-72
2022/09/19 00:39:17;;;;;;;6.17;0.70;;;;;;;9.32;100.00;100198.22;5074841;28;20444;-72
2022/09/19 00:41:44;;;;;;;3.50;0.90;;;;;;;9.37;100.00;100210.03;5075043;28;20441;-71
2022/09/19 00:44:45;;;;;;;7.73;0.73;;;;;;;9.36;100.00;100209.22;5074754;28;20935;-71
2022/09/19 00:47:14;;;;;;;4.30;1.03;;;;;;;9.35;100.00;100204.94;5074592;28;20852;-72
2022/09/19 00:49:47;;;;;;;4.57;1.20;;;;;;;9.32;100.00;100205.53;5074772;28;20484;-72
2022/09/19 00:52:19;;;;;;;3.50;0.90;;;;;;;9.25;100.00;100208.66;5074072;28;20425;-72
2022/09/19 00:54:49;;;;;;;4.37;0.90;;;;;;;9.28;100.00;100210.72;5074628;28;20856;-72
2022/09/19 00:57:17;;;;;;;6.30;1.30;;;;;;;9.26;100.00;100214.84;5074952;28;20792;-72
2022/09/19 00:59:47;;;;;;;4.23;1.40;;;;;;;9.24;100.00;100208.94;5074646;28;20457;-72
2022/09/19 01:02:18;;;;;;;4.20;1.20;;;;;;;9.18;100.00;100208.25;5074486;28;20849;-71
2022/09/19 01:04:44;;;;;;;4.13;1.00;;;;;;;9.21;100.00;100213.06;5074695;28;20491;-71
2022/09/19 01:07:20;;;;;;;3.57;1.00;;;;;;;9.22;100.00;100216.56;5074577;28;20494;-71
2022/09/19 01:09:53;;;;;;;6.90;1.20;;;;;;;9.21;100.00;100223.88;5074230;28;20858;-71
2022/09/19 01:12:31;;;;;;;4.43;1.27;;;;;;;9.22;100.00;100227.38;5074560;28;20434;-71
2022/09/19 01:15:13;;;;;;;4.90;1.20;;;;;;;9.15;100.00;100227.75;5074430;28;20426;-71
2022/09/19 01:17:46;;;;;;;3.87;1.07;;;;;;;9.15;100.00;100221.53;5074434;28;20430;-72
2022/09/19 01:20:48;;;;;;;4.03;1.37;;;;;;;9.17;100.00;100227.47;5073959;28;20477;-71
2022/09/19 01:23:32;;;;;;;10.80;1.23;;;;;;;9.08;100.00;100228.16;5074195;28;20413;-71
2022/09/19 01:26:08;;;;;;;5.43;1.40;;;;;;;9.05;100.00;100227.94;5073946;28;20536;-71
2022/09/19 01:28:40;;;;;;;4.13;1.23;;;;;;;9.00;100.00;100225.34;5074198;28;20425;-71
2022/09/19 01:31:18;;;;;;;3.63;1.13;;;;;;;8.99;100.00;100229.94;5074039;28;20481;-71
2022/09/19 01:33:52;;;;;;;4.87;1.43;;;;;;;8.98;100.00;100239.13;5074022;28;20425;-71
2022/09/19 01:36:21;;;;;;;4.60;1.50;;;;;;;9.07;100.00;100239.25;5073973;28;20430;-71
2022/09/19 01:38:51;;;;;;;3.60;1.00;;;;;;;9.08;100.00;100240.88;5073945;28;20445;-71
2022/09/19 01:41:21;;;;;;;3.87;1.27;;;;;;;9.14;100.00;100239.66;5073873;28;20464;-72
2022/09/19 01:43:49;;;;;;;5.23;1.70;;;;;;;9.15;100.00;100243.97;5073857;28;20445;-72
2022/09/19 01:46:24;;;;;;;4.97;1.70;;;;;;;9.21;100.00;100240.06;5073607;28;20868;-72
2022/09/19 01:48:55;;;;;;;4.83;1.53;;;;;;;9.27;100.00;100238.88;5074003;28;20449;-72
2022/09/19 01:51:29;;;;;;;6.10;2.07;;;;;;;9.29;100.00;100247.47;5073649;28;20491;-72
2022/09/19 01:54:16;;;;;;;4.00;1.40;;;;;;;9.28;100.00;100248.56;5073732;28;20433;-71
2022/09/19 01:56:52;;;;;;;5.57;1.40;;;;;;;9.34;100.00;100257.38;5073298;28;20842;-71
2022/09/19 01:59:37;;;;;;;6.73;2.20;;;;;;;9.36;100.00;100266.00;5073573;28;20429;-72
2022/09/19 02:02:15;;;;;;;4.63;1.40;;;;;;;9.44;100.00;100264.50;5074058;28;20422;-71
2022/09/19 02:04:49;;;;;;;3.60;1.00;;;;;;;9.46;100.00;100262.28;5073396;28;20429;-71
2022/09/19 02:07:23;;;;;;;4.27;1.67;;;;;;;9.50;100.00;100271.38;5073578;28;20478;-72
2022/09/19 02:09:56;;;;;;;4.20;1.73;;;;;;;9.52;100.00;100271.91;5073342;28;20460;-72
2022/09/19 02:12:25;;;;;;;7.43;1.47;;;;;;;9.55;100.00;100263.97;5073494;28;20428;-71
2022/09/19 02:14:57;;;;;;;4.10;1.23;;;;;;;9.57;100.00;100271.78;5073347;28;20449;-71
2022/09/19 02:17:31;;;;;;;5.27;1.90;;;;;;;9.67;100.00;100268.06;5073423;28;20805;-71
2022/09/19 02:20:01;;;;;;;5.97;1.50;;;;;;;9.75;100.00;100270.88;5073007;28;20492;-71
2022/09/19 02:22:30;;;;;;;8.63;2.10;;;;;;;9.81;100.00;100271.56;5073311;28;20430;-72
2022/09/19 02:25:00;;;;;;;5.03;2.03;;;;;;;9.80;100.00;100275.38;5073372;28;20449;-71
2022/09/19 02:27:32;;;;;;;4.73;1.90;;;;;;;9.79;100.00;100279.97;5073355;28;20429;-71
2022/09/19 02:30:06;;;;;;;5.47;1.70;;;;;;;9.83;100.00;100283.69;5073153;28;20465;-71
2022/09/19 02:32:34;;;;;;;5.73;2.00;;;;;;;9.82;100.00;100282.06;5072991;28;20434;-71
2022/09/19 02:35:02;;;;;;;6.70;1.77;;;;;;;9.77;100.00;100284.88;5073442;28;20449;-71
2022/09/19 02:37:32;;;;;;;5.17;1.97;;;;;;;9.79;100.00;100273.78;5073219;28;20460;-72
2022/09/19 02:40:04;;;;;;;6.27;2.43;;;;;;;9.80;100.00;100281.56;5073100;28;20460;-71
2022/09/19 02:42:41;;;;;;;4.73;1.90;;;;;;;9.85;100.00;100284.16;5072879;28;20918;-70
2022/09/19 02:45:16;;;;;;;5.00;1.67;;;;;;;9.84;100.00;100293.41;5073199;28;20516;-71
2022/09/19 02:47:53;;;;;;;6.00;2.33;;;;;;;9.82;100.00;100292.09;5073109;28;20421;-71
2022/09/19 02:50:30;;;;;;;4.30;1.80;;;;;;;9.89;100.00;100294.38;5072994;28;20496;-71
2022/09/19 02:53:00;;;;;;;7.10;2.40;;;;;;;9.89;100.00;100299.81;5073078;28;20421;-71
2022/09/19 02:55:31;;;;;;;7.83;3.07;;;;;;;9.87;100.00;100302.78;5072975;28;20449;-72
2022/09/19 02:58:02;;;;;;;5.50;1.93;;;;;;;9.92;100.00;100307.31;5073088;28;20843;-71
2022/09/19 03:00:32;;;;;;;4.90;2.20;;;;;;;9.92;100.00;100304.63;5072723;28;20966;-71
2022/09/19 03:04:11;;;;;;;5.40;2.27;;;;;;;9.95;100.00;100301.28;5073164;28;20441;-71
2022/09/19 03:05:51;;;;;;;5.77;2.33;;;;;;;10.00;100.00;100306.56;5072531;28;20442;-72
2022/09/19 03:08:20;;;;;;;6.87;2.07;;;;;;;10.00;100.00;100304.66;5072920;28;20499;-72
2022/09/19 03:10:49;;;;;;;6.03;2.67;;;;;;;10.04;100.00;100308.38;5072731;28;20489;-71
2022/09/19 03:13:21;;;;;;;4.53;1.60;;;;;;;10.10;100.00;100309.09;5072847;28;20437;-71
2022/09/19 03:15:56;;;;;;;5.77;2.30;;;;;;;10.09;100.00;100310.16;5073212;28;20517;-71
2022/09/19 03:18:26;;;;;;;6.67;2.13;;;;;;;10.15;100.00;100314.38;5076890;28;20421;-71
2022/09/19 03:20:55;;;;;;;7.23;2.57;;;;;;;10.18;100.00;100316.50;5076550;28;20464;-72
2022/09/19 03:23:27;;;;;;;9.20;3.07;;;;;;;10.17;100.00;100314.88;5076808;28;20444;-72
2022/09/19 03:25:53;;;;;;;7.20;2.60;;;;;;;10.16;100.00;100326.81;5076601;28;20423;-72
2022/09/19 03:28:21;;;;;;;5.10;2.00;;;;;;;10.14;100.00;100318.19;5076475;28;20468;-72
2022/09/19 03:30:49;;;;;;;7.30;2.80;;;;;;;10.20;100.00;100332.41;5076331;28;20485;-71
2022/09/19 03:33:16;;;;;;;6.00;2.97;;;;;;;10.22;100.00;100330.19;5076493;28;20472;-72
2022/09/19 03:35:44;;;;;;;6.63;2.97;;;;;;;10.24;100.00;100334.22;5076359;28;20475;-73
2022/09/19 03:38:11;;;;;;;7.07;2.70;;;;;;;10.23;100.00;100338.03;5076363;28;20429;-73
2022/09/19 03:40:38;;;;;;;7.70;2.77;;;;;;;10.25;100.00;100333.13;5076203;28;20453;-73
2022/09/19 03:43:05;;;;;;;6.87;2.90;;;;;;;10.29;100.00;100338.72;5076401;28;20469;-72
2022/09/19 03:45:31;;;;;;;6.27;2.40;;;;;;;10.23;100.00;100346.16;5075961;28;20956;-71
2022/09/19 03:47:59;;;;;;;9.50;2.80;;;;;;;10.27;100.00;100349.88;5076037;28;20449;-70
2022/09/19 03:50:25;;;;;;;7.33;2.60;;;;;;;10.28;100.00;100351.47;5075724;28;20465;-70
2022/09/19 03:52:52;;;;;;;6.10;2.27;;;;;;;10.28;100.00;100351.47;5075989;28;20445;-69
2022/09/19 03:55:18;;;;;;;15.80;3.10;;;;;;;10.26;100.00;100348.25;5075986;28;20445;-70
2022/09/19 03:57:45;;;;;;;6.70;3.17;;;;;;;10.24;100.00;100349.66;5075921;28;20475;-70
2022/09/19 04:00:13;;;;;;;10.00;3.13;;;;;;;10.21;100.00;100351.03;5075477;28;20978;-70
2022/09/19 04:02:39;;;;;;;6.47;2.90;;;;;;;10.17;100.00;100355.47;5075799;28;20506;-70
2022/09/19 04:05:08;;;;;;;5.60;2.80;;;;;;;10.14;100.00;100353.38;5075816;28;20490;-70
2022/09/19 04:07:38;;;;;;;5.93;2.10;;;;;;;10.18;100.00;100354.38;5075889;28;20490;-71
2022/09/19 04:10:06;;;;;;;5.93;2.70;;;;;;;10.16;100.00;100361.19;5075753;28;20495;-69
2022/09/19 04:12:33;;;;;;;5.33;2.23;;;;;;;10.21;100.00;100355.66;5075556;28;20508;-70
2022/09/19 04:15:00;;;;;;;7.20;3.07;;;;;;;10.20;100.00;100362.19;5075632;28;20468;-70
2022/09/19 04:17:27;;;;;;;10.40;2.87;;;;;;;10.15;100.00;100359.59;5075211;28;20874;-70
2022/09/19 04:19:54;;;;;;;5.93;2.60;;;;;;;10.16;100.00;100370.09;5075121;28;20487;-70
2022/09/19 04:22:22;;;;;;;8.00;2.83;;;;;;;10.18;100.00;100378.75;5075431;28;20437;-71
2022/09/19 04:24:48;;;;;;;6.20;2.63;;;;;;;10.21;100.00;100383.53;5075386;28;20444;-70
2022/09/19 04:27:15;;;;;;;8.73;3.37;;;;;;;10.15;100.00;100386.66;5074855;28;20445;-70
2022/09/19 04:29:41;;;;;;;6.63;3.33;;;;;;;10.20;100.00;100386.53;5075167;28;20472;-70
2022/09/19 04:32:08;;;;;;;8.50;3.20;;;;;;;10.23;100.00;100386.75;5075219;28;20488;-70
2022/09/19 04:34:35;;;;;;;7.20;3.40;;;;;;;10.18;100.00;100384.16;5075254;28;20442;-70
2022/09/19 04:37:03;;;;;;;8.23;3.50;;;;;;;10.13;100.00;100392.34;5075236;28;20536;-70
2022/09/19 04:39:31;;;;;;;11.23;3.57;;;;;;;10.24;100.00;100382.13;5074970;28;20469;-70
2022/09/19 04:41:58;;;;;;;6.83;2.60;;;;;;;10.24;100.00;100392.97;5074786;28;20446;-70
2022/09/19 04:44:28;;;;;;;5.30;2.43;;;;;;;10.25;100.00;100392.66;5074654;28;20517;-70
2022/09/19 04:46:55;;;;;;;14.10;2.80;;;;;;;10.26;100.00;100401.59;5074751;28;20430;-70
2022/09/19 04:49:21;;;;;;;7.40;3.30;;;;;;;10.27;100.00;100403.19;5074760;28;20479;-69
2022/09/19 04:51:47;;;;;;;5.97;2.70;;;;;;;10.24;100.00;100388.38;5074836;28;20538;-70
2022/09/19 04:54:14;;;;;;;5.47;2.40;;;;;;;10.21;100.00;100396.25;5074880;28;20515;-70
2022/09/19 04:56:44;;;;;;;6.70;2.73;;;;;;;10.29;100.00;100404.50;5074808;28;20477;-71
2022/09/19 04:59:11;;;;;;;7.30;3.20;;;;;;;10.32;100.00;100403.09;5074434;28;20955;-71
2022/09/19 05:01:37;;;;;;;7.93;4.20;;;;;;;10.36;100.00;100409.50;5074898;28;20445;-71
2022/09/19 05:04:04;;;;;;;5.90;2.70;;;;;;;10.35;100.00;100411.41;5074688;28;20442;-71
2022/09/19 05:06:31;;;;;;;5.67;2.50;;;;;;;10.38;100.00;100418.13;5074659;28;20445;-73
2022/09/19 05:08:58;;;;;;;10.17;3.03;;;;;;;10.35;100.00;100411.41;5074212;28;20969;-71
2022/09/19 05:11:25;;;;;;;6.60;3.20;;;;;;;10.47;100.00;100412.78;5074370;28;20495;-71
2022/09/19 05:13:53;;;;;;;8.73;3.17;;;;;;;10.44;100.00;100413.38;5074481;28;20445;-71
2022/09/19 05:16:20;;;;;;;5.90;2.67;;;;;;;10.44;100.00;100421.50;5074475;28;20449;-71
2022/09/19 05:18:49;;;;;;;7.27;2.80;;;;;;;10.48;100.00;100422.50;5074210;28;20446;-71
2022/09/19 05:21:16;;;;;;;5.63;2.50;;;;;;;10.49;100.00;100426.81;5073875;28;20469;-71
2022/09/19 05:28:46;;;;;;;4.73;2.07;;;;;;;10.50;100.00;100440.06;5052590;28;20498;-69
2022/09/19 05:31:16;;;;;;;5.10;1.93;;;;;;;10.54;100.00;100442.97;5053620;28;20474;-69
2022/09/19 05:33:43;;;;;;;5.20;2.20;;;;;;;10.58;100.00;100441.25;5054271;28;20430;-68
2022/09/19 05:36:09;;;;;;;4.10;1.80;;;;;;;10.65;100.00;100436.22;5053184;28;20482;-68
2022/09/19 05:38:36;;;;;;;6.87;2.77;;;;;;;10.69;100.00;100442.63;5053585;28;20580;-68
2022/09/19 05:41:04;;;;;;;12.10;2.20;;;;;;;10.63;100.00;100448.47;5055511;28;20809;-68
2022/09/19 05:43:31;;;;;;;7.03;2.43;;;;;;;10.59;100.00;100456.41;5053922;28;20457;-68
2022/09/19 05:45:57;;;;;;;9.70;2.33;;;;;;;10.65;100.00;100455.19;5053523;28;21035;-68
2022/09/19 05:48:26;;;;;;;5.20;2.10;;;;;;;10.72;100.00;100461.00;5053574;28;20930;-68
2022/09/19 05:50:54;;;;;;;3.83;1.60;;;;;;;10.74;100.00;100460.69;5053707;28;20457;-68
2022/09/19 05:56:07;;;;;;;5.20;1.90;;;;;;;10.89;100.00;100467.66;5053682;28;20444;-68
2022/09/19 05:58:35;;;;;;;5.17;2.20;;;;;;;10.94;100.00;100465.66;5053691;28;20449;-68
2022/09/19 06:01:04;;;;;;;8.13;1.97;;;;;;;10.97;100.00;100478.56;5053654;28;20549;-68
2022/09/19 06:03:33;;;;;;;7.63;2.10;;;;;;;10.96;100.00;100473.47;5053577;28;20449;-68
2022/09/19 06:06:00;;;;;;;11.90;2.03;;;;;;;10.95;100.00;100474.56;5053135;28;21057;-68
2022/09/19 06:08:26;;;;;;;4.83;1.93;;;;;;;11.04;100.00;100473.53;5053546;28;20438;-69
2022/09/19 06:10:53;;;;;;;5.20;1.60;;;;;;;11.05;100.00;100477.03;5053480;28;20537;-68
2022/09/19 06:13:22;;;;;;;5.00;1.43;;;;;;;11.05;100.00;100485.19;5053467;28;20446;-68
2022/09/19 06:15:49;;;;;;;4.30;1.37;;;;;;;11.06;100.00;100490.28;5053032;28;20849;-68
2022/09/19 06:18:16;;;;;;;5.20;1.50;;;;;;;11.13;100.00;100484.44;5053126;28;20993;-68
2022/09/19 06:20:46;;;;;;;6.00;2.53;;;;;;;11.17;100.00;100495.47;5053364;28;20450;-68
2022/09/19 06:23:13;;;;;;;5.53;1.87;;;;;;;11.17;100.00;100490.84;5053322;28;20438;-68
2022/09/19 06:25:40;;;;;;;3.70;1.30;;;;;;;11.25;100.00;100498.25;5053194;28;20466;-68
2022/09/19 06:28:10;;;;;;;8.40;1.97;;;;;;;11.27;100.00;100498.75;5053248;28;20497;-68
2022/09/19 06:30:37;;;;;;;5.37;2.03;;;;;;;11.26;100.00;100507.19;5052896;28;20501;-69
2022/09/19 06:33:05;;;;;;;6.37;1.77;;;;;;;11.29;100.00;100504.69;5052840;28;20478;-68
2022/09/19 06:35:32;;;;;;;6.03;2.00;;;;;;;11.33;100.00;100502.13;5053095;28;20466;-68
2022/09/19 06:38:02;;;;;;;4.50;1.80;;;;;;;11.38;100.00;100504.75;5053088;28;20442;-68
2022/09/19 06:40:30;;;;;;;4.10;1.50;;;;;;;11.40;100.00;100515.28;5053521;28;20435;-68
2022/09/19 06:42:58;;;;;;;6.17;1.33;;;;;;;11.47;100.00;100521.09;5052957;28;20446;-70
2022/09/19 06:45:24;;;;;;;4.83;1.87;;;;;;;11.49;100.00;100516.13;5052840;28;20473;-70
2022/09/19 06:47:56;;;;;;;7.70;1.53;;;;;;;11.61;100.00;100522.59;5053033;28;20465;-69
2022/09/19 06:50:23;;;;;;;6.10;2.10;;;;;;;11.67;100.00;100536.84;5053108;28;20847;-69
2022/09/19 06:52:50;;;;;;;4.40;1.43;;;;;;;11.72;100.00;100528.56;5056763;28;20547;-69
2022/09/19 06:55:18;;;;;;;4.10;1.50;;;;;;;11.77;100.00;100528.44;5057021;28;20473;-69
2022/09/19 06:57:54;;;;;;;4.47;1.67;;;;;;;11.82;100.00;100535.66;5056991;28;20442;-70
2022/09/19 07:00:22;;;;;;;4.57;1.83;;;;;;;11.80;100.00;100535.16;5056776;28;20931;-73
2022/09/19 07:02:49;;;;;;;5.67;1.20;;;;;;;11.91;100.00;100549.28;5056962;28;20442;-71
2022/09/19 07:05:15;;;;;;;8.77;1.83;;;;;;;11.96;100.00;100549.19;5056887;28;20573;-72
2022/09/19 07:07:42;;;;;;;6.03;1.87;;;;;;;11.99;100.00;100553.97;5056929;28;20496;-71
2022/09/19 07:10:09;;;;;;;3.93;1.33;;;;;;;12.04;100.00;100556.56;5056880;28;20454;-69
2022/09/19 07:12:37;;;;;;;5.30;1.47;;;;;;;12.16;100.00;100558.69;5056437;28;21060;-72
2022/09/19 07:15:04;;;;;;;4.03;1.30;;;;;;;12.20;100.00;100565.91;5056681;28;20442;-72
2022/09/19 07:17:30;;;;;;;3.83;1.53;;;;;;;12.19;100.00;100563.53;5056771;28;20446;-72
2022/09/19 07:19:57;;;;;;;3.70;1.60;;;;;;;12.25;100.00;100563.06;5056710;28;20450;-72
2022/09/19 07:22:23;;;;;;;4.17;1.63;;;;;;;12.26;100.00;100564.69;5056708;28;20484;-72
2022/09/19 07:24:50;;;;;;;6.10;2.00;;;;;;;12.31;100.00;100569.97;5056536;28;20437;-71
2022/09/19 07:27:16;;;;;;;5.10;1.57;;;;;;;12.36;100.00;100572.53;5056592;28;20543;-72
2022/09/19 07:29:44;;;;;;;4.23;1.50;;;;;;;12.45;100.00;100571.78;5056236;28;20881;-71
2022/09/19 07:32:10;;;;;;;4.10;1.40;;;;;;;12.53;100.00;100590.84;5056377;28;20493;-71
2022/09/19 07:34:37;;;;;;;3.90;1.23;;;;;;;12.56;100.00;100583.97;5056365;28;20503;-71
2022/09/19 07:37:04;;;;;;;3.77;1.10;;;;;;;12.57;100.00;100582.84;5056368;28;20477;-73
2022/09/19 07:39:30;;;;;;;5.53;1.60;;;;;;;12.55;100.00;100587.78;5056325;28;20449;-72
2022/09/19 07:41:56;;;;;;;3.80;1.40;;;;;;;12.71;100.00;100596.34;5056256;28;20499;-72
2022/09/19 07:44:23;;;;;;;5.00;1.47;;;;;;;12.83;100.00;100599.22;5056246;28;20449;-72
2022/09/19 07:49:33;;;;;;;5.53;1.37;;;;;;;12.98;100.00;100608.88;5054837;28;20456;-71
2022/09/19 07:51:59;;;;;;;5.10;1.90;;;;;;;12.98;100.00;100606.97;5056002;28;20520;-71
2022/09/19 07:54:26;;;;;;;5.10;1.47;;;;;;;13.13;100.00;100619.31;5055733;28;20496;-70
2022/09/19 07:56:52;;;;;;;6.63;1.67;;;;;;;13.20;100.00;100624.28;5055610;28;20462;-70
2022/09/19 07:59:18;;;;;;;4.20;1.70;;;;;;;13.22;100.00;100622.88;5055919;28;20438;-71
2022/09/19 08:01:45;;;;;;;3.93;1.23;;;;;;;13.12;100.00;100613.06;5055314;28;20790;-69
2022/09/19 08:04:13;;;;;;;3.83;1.50;;;;;;;13.15;100.00;100614.38;5055838;28;20488;-71
2022/09/19 08:06:40;;;;;;;4.83;1.93;;;;;;;13.22;100.00;100628.31;5055720;28;20551;-71
2022/09/19 08:09:06;;;;;;;4.10;1.50;;;;;;;13.29;100.00;100638.72;5055449;28;20942;-71
2022/09/19 08:11:35;;;;;;;4.17;1.60;;;;;;;13.46;100.00;100646.09;5055532;28;20472;-71
2022/09/19 08:14:02;;;;;;;7.60;1.60;;;;;;;13.54;100.00;100646.09;5055672;28;20446;-70
2022/09/19 08:16:28;;;;;;;3.67;1.00;;;;;;;13.61;100.00;100642.91;5055534;28;20469;-71
2022/09/19 08:18:54;;;;;;;3.47;1.07;;;;;;;13.77;100.00;100638.59;5055269;28;20997;-71
2022/09/19 08:21:22;;;;;;;3.43;1.10;;;;;;;13.91;100.00;100646.59;5055551;28;20446;-71
2022/09/19 08:23:49;;;;;;;10.03;1.37;;;;;;;13.95;100.00;100644.84;5055464;28;20439;-71
2022/09/19 08:26:16;;;;;;;11.03;1.33;;;;;;;14.01;100.00;100654.44;5055320;28;20465;-71
2022/09/19 08:28:43;;;;;;;4.13;1.17;;;;;;;13.95;100.00;100661.19;5055198;28;20448;-71
2022/09/19 08:31:10;;;;;;;3.80;1.30;;;;;;;13.93;100.00;100662.59;5055379;28;20431;-71
2022/09/19 08:33:37;;;;;;;3.50;1.23;;;;;;;13.97;100.00;100675.25;5054914;28;21060;-69
2022/09/19 08:36:04;;;;;;;4.50;1.37;;;;;;;13.90;100.00;100666.78;5055091;28;20560;-69
2022/09/19 08:38:32;;;;;;;4.70;1.40;;;;;;;13.80;100.00;100667.88;5055186;28;20450;-71
2022/09/19 08:41:25;;;;;;;3.10;0.90;;;;;;;13.77;100.00;100675.91;5055177;28;20438;-71
2022/09/19 08:43:58;;;;;;;5.27;1.43;;;;;;;13.90;100.00;100674.97;5055183;28;20419;-71
2022/09/19 08:46:33;;;;;;;4.90;1.30;;;;;;;13.91;100.00;100676.56;5055061;28;20815;-70
2022/09/19 08:49:04;;;;;;;6.70;1.10;;;;;;;14.01;100.00;100675.41;5054966;28;20801;-71
2022/09/19 08:51:34;;;;;;;4.60;1.60;;;;;;;14.10;100.00;100674.28;5055053;28;20431;-70
2022/09/19 08:54:12;;;;;;;3.10;0.63;;;;;;;14.06;100.00;100677.97;5054786;28;20474;-71
2022/09/19 08:56:40;;;;;;;9.93;1.57;;;;;;;14.32;100.00;100681.47;5054833;28;20524;-71
2022/09/19 08:59:13;;;;;;;4.60;1.20;;;;;;;14.39;99.00;100684.50;5054781;28;20446;-70
2022/09/19 09:01:40;;;;;;;4.07;1.30;;;;;;;14.36;98.09;100685.16;5054820;28;20430;-71
2022/09/19 09:04:18;;;;;;;3.53;0.87;;;;;;;14.38;98.95;100682.09;5054714;28;20435;-71
2022/09/19 09:06:57;;;;;;;3.70;1.17;;;;;;;14.31;98.48;100688.03;5054607;28;20470;-71
2022/09/19 09:09:38;;;;;;;3.70;1.00;;;;;;;14.42;99.52;100671.34;5054692;28;20437;-71
2022/09/19 09:12:17;;;;;;;3.40;0.70;;;;;;;14.66;99.05;100679.00;5054205;28;20903;-71
2022/09/19 09:14:58;;;;;;;4.13;1.07;;;;;;;14.67;97.34;100686.84;5053205;28;20906;-71
2022/09/19 09:17:32;;;;;;;6.37;1.23;;;;;;;14.76;94.92;100681.38;5054216;28;20899;-71
2022/09/19 09:20:15;;;;;;;3.07;0.70;;;;;;;14.77;95.33;100691.16;5054440;28;20433;-71
2022/09/19 09:22:47;;;;;;;3.00;0.80;;;;;;;14.89;96.17;100691.28;5054551;28;20438;-71
2022/09/19 09:25:19;;;;;;;2.90;0.60;;;;;;;15.04;93.64;100689.91;5054298;28;20465;-71
2022/09/19 09:27:56;;;;;;;8.07;0.97;;;;;;;15.27;91.93;100685.78;5054266;28;20414;-71
2022/09/19 09:30:22;;;;;;;3.13;0.73;;;;;;;15.35;91.69;100690.38;5053968;28;20452;-71
2022/09/19 09:32:54;;;;;;;2.90;0.50;;;;;;;15.47;90.26;100697.06;5053771;28;20997;-71
2022/09/19 09:35:31;;;;;;;2.83;0.50;;;;;;;15.53;89.08;100695.72;5054103;28;20459;-71
2022/09/19 09:38:03;;;;;;;3.40;0.73;;;;;;;15.54;89.13;100700.09;5054130;28;20795;-71
2022/09/19 09:43:27;;;;;;;2.93;0.50;;;;;;;15.58;89.66;100703.72;5053851;28;20401;-71
2022/09/19 09:45:54;;;;;;;3.63;0.77;;;;;;;15.47;90.02;100699.78;5053799;28;20503;-71
2022/09/19 09:48:26;;;;;;;3.27;0.70;;;;;;;15.47;90.88;100694.34;5053824;28;20446;-71
2022/09/19 09:51:10;;;;;;;3.10;0.93;;;;;;;15.59;89.13;100697.16;5053854;28;20497;-71
2022/09/19 09:53:53;;;;;;;2.90;0.47;;;;;;;15.83;91.21;100689.13;5053750;28;20469;-71
2022/09/19 09:56:28;;;;;;;3.00;0.63;;;;;;;16.18;88.06;100688.03;5053752;28;20832;-71
2022/09/19 09:59:07;;;;;;;2.90;0.60;;;;;;;16.33;86.90;100690.09;5053466;28;20421;-71
2022/09/19 10:04:33;;;;;;;3.17;0.70;;;;;;;16.07;85.56;100691.19;5053495;28;20503;-70
2022/09/19 10:07:13;;;;;;;3.23;0.80;;;;;;;15.87;86.57;100700.97;5053567;28;20462;-71
2022/09/19 10:09:44;;;;;;;4.10;0.70;;;;;;;15.70;88.48;100706.56;5053261;28;20929;-72
2022/09/19 10:12:21;;;;;;;2.70;0.40;;;;;;;15.74;87.84;100712.97;5053475;28;20492;-70
2022/09/19 10:14:47;;;;;;;75.20;19.37;;;;;;;15.64;90.30;100714.16;5053672;28;20529;-71
2022/09/19 10:17:19;;;;;;;47.80;16.17;;;;;;;15.67;91.09;100720.91;5053297;28;20439;-71
2022/09/19 10:19:47;;;;;;;11.00;4.90;;;;;;;15.66;89.93;100715.75;5053364;28;20458;-71
2022/09/19 10:22:16;;;;;;;9.23;1.77;;;;;;;15.50;91.87;100724.50;5053410;28;20446;-71
2022/09/19 10:24:50;;;;;;;3.47;0.90;;;;;;;15.58;91.53;100729.13;5053157;28;20488;-71
2022/09/19 10:27:22;;;;;;;2.70;0.40;;;;;;;15.63;88.30;100733.59;5053030;28;20907;-69
2022/09/19 10:29:53;;;;;;;2.90;0.60;;;;;;;15.63;87.90;100726.19;5052998;28;20458;-71
2022/09/19 10:32:24;;;;;;;3.50;0.40;;;;;;;15.61;87.66;100730.38;5053167;28;20423;-72
2022/09/19 10:34:51;;;;;;;3.67;1.10;;;;;;;15.65;84.14;100734.06;5052744;28;20473;-72
2022/09/19 10:37:18;;;;;;;3.00;0.67;;;;;;;15.71;85.88;100719.09;5053099;28;20437;-71
2022/09/19 10:39:48;;;;;;;4.00;1.03;;;;;;;15.86;85.53;100723.97;5053104;28;20516;-74
2022/09/19 10:42:47;;;;;;;4.10;1.00;;;;;;;16.13;86.71;100719.09;5053071;28;20863;-73
2022/09/19 10:45:26;;;;;;;4.00;1.00;;;;;;;16.39;84.44;100724.31;4991484;28;20503;-72
2022/09/19 10:47:55;;;;;;;4.33;1.07;;;;;;;16.42;83.24;100725.56;5044460;28;20462;-72
2022/09/19 10:50:23;;;;;;;5.93;1.90;;;;;;;16.50;83.86;100728.22;5053119;28;20515;-72
2022/09/19 10:52:52;;;;;;;13.00;5.70;;;;;;;16.40;81.80;100734.91;5052849;28;20492;-72
2022/09/19 10:55:22;;;;;;;3.97;1.20;;;;;;;16.26;82.55;100736.34;5053002;28;20465;-72
2022/09/19 10:58:00;;;;;;;3.37;0.67;;;;;;;16.23;80.70;100728.81;5052639;28;20984;-71
2022/09/19 11:00:28;;;;;;;3.57;0.77;;;;;;;16.17;82.23;100730.16;5052999;28;20811;-71
2022/09/19 11:03:01;;;;;;;2.93;0.63;;;;;;;15.98;81.60;100734.16;5052917;28;20438;-72
2022/09/19 11:05:30;;;;;;;2.90;0.60;;;;;;;16.18;81.80;100732.53;5052888;28;20458;-71
2022/09/19 11:08:02;;;;;;;3.57;0.80;;;;;;;16.38;79.19;100737.19;5052901;28;20545;-71
2022/09/19 11:10:38;;;;;;;4.23;0.93;;;;;;;16.42;79.29;100729.09;5053051;28;20471;-71
2022/09/19 11:13:14;;;;;;;2.90;0.70;;;;;;;16.43;78.36;100736.19;5052796;28;20543;-72
2022/09/19 11:15:57;;;;;;;3.53;0.50;;;;;;;16.94;77.70;100733.25;5052704;28;20480;-71
2022/09/19 11:18:36;;;;;;;2.90;0.50;;;;;;;17.41;74.42;100739.09;5052901;28;20427;-72
2022/09/19 11:21:10;;;;;;;7.70;0.60;;;;;;;17.46;75.68;100730.63;5052882;28;20437;-72
2022/09/19 11:23:50;;;;;;;4.20;1.10;;;;;;;16.93;77.63;100717.97;5052792;28;20426;-72
2022/09/19 11:26:28;;;;;;;3.83;1.20;;;;;;;16.17;83.51;100728.22;5052692;28;20473;-72
2022/09/19 11:29:10;;;;;;;2.80;0.60;;;;;;;15.73;85.17;100719.56;5052561;28;20438;-72
2022/09/19 11:31:43;;;;;;;2.90;0.60;;;;;;;15.39;86.61;100728.75;5052365;28;20863;-72
2022/09/19 11:34:16;;;;;;;3.73;0.80;;;;;;;15.43;87.53;100723.41;5052623;28;20516;-72
2022/09/19 11:36:52;;;;;;;2.70;0.40;;;;;;;16.39;82.28;100718.84;5052769;28;20469;-69
2022/09/19 11:39:30;;;;;;;2.90;0.80;;;;;;;16.74;78.63;100724.00;5056330;28;20430;-72
2022/09/19 11:42:10;;;;;;;2.90;0.60;;;;;;;16.58;79.30;100716.38;5056296;28;20437;-72
2022/09/19 11:44:51;;;;;;;3.00;0.70;;;;;;;16.47;79.91;100708.94;5056305;28;20487;-72
2022/09/19 11:47:50;;;;;;;2.90;0.60;;;;;;;16.49;78.58;100710.22;5056248;28;20434;-72
2022/09/19 11:50:37;;;;;;;2.67;0.40;;;;;;;16.86;77.25;100702.91;5052643;28;20458;-72
2022/09/19 11:53:21;;;;;;;3.37;0.50;;;;;;;17.03;78.40;100709.31;5056105;28;20852;-72
2022/09/19 11:55:55;;;;;;;3.10;0.60;;;;;;;17.00;81.41;100721.75;5055849;28;20993;-74
2022/09/19 11:58:30;;;;;;;2.67;0.40;;;;;;;16.22;80.89;100752.59;5056122;28;20441;-70